Nearby METAR Reports

 

KBAX - Bad Axe, Michigan, USA
Distance from station: ESE 22mi, 35km
Updated: Thu, 09-Apr-2020 6:56am EDT
Overcast
Overcast
 Wind from NW
Wind: NW 5 mph , 7 km/h
Temperature: 37°F , 3°C
Wind Chill: 33°F , 1°C
Dew Point: 32°F , 0°C
Humidity: 81%
Barometer: 29.50 inHg , 999 hPa
Clouds: Overcast
Visibility: 10 miles , 16 km
Cloud details: Overcast 11000 ft
2020/04/09 10:56 KBAX 091056Z AUTO 31004KT 10SM OVC110 03/00 A2950 RMK AO2 T00300000
KFNT - Flint, Michigan, USA
Distance from station: SSW 68mi, 109km
Updated: Thu, 09-Apr-2020 6:53am EDT
Overcast
Overcast
 Wind from WSW
Wind: WSW 8 mph , 13 km/h
Temperature: 39°F , 4°C
Wind Chill: 33°F , 1°C
Dew Point: 34°F , 1°C
Humidity: 81%
Barometer: 29.56 inHg , 1001 hPa
Clouds: Overcast
Visibility: 10 miles , 16 km
Cloud details: Few Clouds 6000 ft
Partly cloudy 7500 ft
Overcast 9500 ft
2020/04/09 10:53 KFNT 091053Z 24007KT 10SM FEW060 SCT075 OVC095 04/01 A2956 RMK AO2 SLP013 T00390006
KMBS - Saginaw, Michigan, USA
Distance from station: SW 44mi, 70km
Updated: Thu, 09-Apr-2020 6:53am EDT
Few Clouds
Few Clouds
 Wind from W
Wind: W 10 mph , 17 km/h
Temperature: 37°F , 3°C
Wind Chill: 30°F , -1°C
Dew Point: 34°F , 1°C
Humidity: 87%
Barometer: 29.57 inHg , 1001.4 hPa
Clouds: Few Clouds
Visibility: 10 miles , 16 km
Cloud details: Few Clouds 12000 ft
2020/04/09 10:53 KMBS 091053Z 26009KT 10SM FEW120 03/01 A2957 RMK AO2 SLP014 T00330006
 
KDTW - Detroit/Wayne, Michigan, USA
Distance from station: SSE 117mi, 188km
Updated: Thu, 09-Apr-2020 6:53am EDT
Light rain, Overcast
Light rain, Overcast
 Wind from NNW
Wind: NNW 9 mph , 15 km/h
Temperature: 39°F , 4°C
Wind Chill: 33°F , 1°C
Dew Point: 32°F , 0°C
Humidity: 75%
Barometer: 29.57 inHg , 1001.4 hPa
Summary: Light rain
Clouds: Overcast
Visibility: 8 miles , 13 km
Cloud details: Partly cloudy 2500 ft
Overcast 4500 ft
2020/04/09 10:53 KDTW 091053Z 33008KT 8SM -RA SCT025 OVC045 04/00 A2957 RMK AO2 RAB31SNB10E31 SLP014 P0000 T00390000 $
KP58 - Port Hope, Michigan, USA
Distance from station: ENE 30mi, 48km
Updated: Thu, 09-Apr-2020 6:51am EDT

 Wind from WNW
Wind: WNW 12 mph , 19 km/h
Temperature: 39°F , 4°C
Wind Chill: 32°F , 0°C
Dew Point: 32°F , 0°C
Humidity: 75%
Barometer: 29.48 inHg , 998.3 hPa
2020/04/09 10:51 KP58 091051Z AUTO 29010KT 04/00 A2948 RMK AO1 SLP988 T00390000
KCFS - Caro/Tuscola, Michigan, USA
Distance from station: S 31mi, 50km
Updated: Thu, 09-Apr-2020 6:55am EDT
Mostly cloudy
Mostly cloudy
 Wind from WSW
Wind: WSW 5 mph , 7 km/h
Temperature: 37°F , 3°C
Wind Chill: 33°F , 1°C
Dew Point: 32°F , 0°C
Humidity: 81%
Barometer: 29.53 inHg , 1000 hPa
Clouds: Mostly cloudy
Visibility: 10 miles , 16 km
Cloud details: Partly cloudy 6000 ft
Partly cloudy 7500 ft
Mostly cloudy 10000 ft
2020/04/09 10:55 KCFS 091055Z AUTO 25004KT 10SM SCT060 SCT075 BKN100 03/00 A2953 RMK AO2 T00310002
 
KPHN - Port Huron, Michigan, USA
Distance from station: SSE 81mi, 131km
Updated: Thu, 09-Apr-2020 6:55am EDT
Light rain, Overcast
Light rain, Overcast
 Wind from WSW
Wind: WSW 5 mph , 7 km/h
Temperature: 37°F , 3°C
Wind Chill: 33°F , 1°C
Dew Point: 34°F , 1°C
Humidity: 87%
Barometer: 29.53 inHg , 1000 hPa
Summary: Light rain
Clouds: Overcast
Visibility: 10 miles , 16 km
Cloud details: Partly cloudy 2900 ft
Partly cloudy 4000 ft
Overcast 5500 ft
2020/04/09 10:55 KPHN 091055Z AUTO 25004KT 10SM -RA SCT029 SCT040 OVC055 03/01 A2953 RMK AO2
KPTK - Pontiac, Michigan, USA
Distance from station: S 86mi, 138km
Updated: Thu, 09-Apr-2020 6:53am EDT
Mostly cloudy
Mostly cloudy
 Wind from WSW
Wind: WSW 5 mph , 7 km/h
Temperature: 36°F , 2°C
Wind Chill: 32°F , 0°C
Dew Point: 32°F , 0°C
Humidity: 87%
Barometer: 29.53 inHg , 1000 hPa
Clouds: Mostly cloudy
Visibility: 10 miles , 16 km
Cloud details: Few Clouds 1400 ft
Partly cloudy 3400 ft
Mostly cloudy 5500 ft
2020/04/09 10:53 KPTK 091053Z 25004KT 10SM FEW014 SCT034 BKN055 02/00 A2953 RMK AO2 RAB08E16SNB15E41 SLP002 P0001 T00170000
KMTC - Selfridge Angb, Michigan, USA
Distance from station: SSE 94mi, 151km
Updated: Thu, 09-Apr-2020 6:11am EDT
Mostly cloudy
Mostly cloudy
 Wind from NNW
Wind: NNW 14 mph , 22 km/h
Temperature: 37°F , 3°C
Wind Chill: 28°F , -2°C
Dew Point: 37°F , 3°C
Humidity: 100%
Barometer: 29.51 inHg , 999.3 hPa
Clouds: Mostly cloudy
Visibility: 10 miles , 16 km
Cloud details: Mostly cloudy 4400 ft
2020/04/09 10:11 KMTC 091011Z AUTO 34012KT 10SM BKN044 03/03 A2951 RMK AO2 RAE0957DZB0957E00RAB00E10DZB10E11 SLP999 $